Basco, Illinois
Current Conditions -  °F | °C
As of 10:35 PM on Tuesday 21 Oct 2014 (Local Time) from KEOK Reporting Station
Clear Clear  
Wind Chill: 45°   Ceiling: Unl
Heat Index: 48°   Visibility: 10mi
Dew Point: 39°   Wind: 8mph
Humidity: 71%   Direction: 100°E
Pressure: 30.21"   Gusts: NA
Location:  40.33°N, 91.2°W
Report Text: KEOK 220335Z AUTO 10007KT 10SM CLR 09/04 A3021 RMK AO2
Loading
Personal Weather Stations






























Interactive Weather Map
Tropical Storm Tracking
New forecast layout! Learn more

10-Day Weather Forecast

Advertisements
Track Severe Weather on mobile